createdAt,value
2022-12-23T00:00:55.092Z,22.2
2022-12-23T00:01:57.452Z,22.3
2022-12-23T00:03:00.702Z,22.3
2022-12-23T00:04:04.627Z,22.2
2022-12-23T00:05:07.542Z,22.4
2022-12-23T00:06:09.799Z,22.3
2022-12-23T00:07:12.332Z,22.3
2022-12-23T00:08:14.298Z,22.3
2022-12-23T00:09:16.533Z,22.3
2022-12-23T00:10:18.832Z,22.3
2022-12-23T00:11:20.814Z,22.3
2022-12-23T00:12:22.750Z,22.3
2022-12-23T00:13:25.358Z,22.4
2022-12-23T00:14:27.945Z,22.3
2022-12-23T00:15:30.237Z,22.3
2022-12-23T00:16:32.804Z,22.3
2022-12-23T00:17:35.657Z,22.5
2022-12-23T00:18:37.611Z,22.5
2022-12-23T00:19:40.124Z,22.4
2022-12-23T00:20:42.777Z,22.4
2022-12-23T00:21:44.765Z,22.4
2022-12-23T00:22:46.987Z,22.4
2022-12-23T00:23:49.519Z,22.4
2022-12-23T00:24:52.094Z,22.4
2022-12-23T00:25:54.612Z,22.4
2022-12-23T00:26:56.846Z,22.4
2022-12-23T00:27:59.351Z,22.4
2022-12-23T00:29:02.241Z,22.3
2022-12-23T00:30:04.779Z,22.5
2022-12-23T00:31:07.464Z,22.3
2022-12-23T00:32:09.991Z,22.3
2022-12-23T00:33:13.082Z,22.3
2022-12-23T00:34:15.327Z,22.4
2022-12-23T00:35:17.846Z,22.3
2022-12-23T00:36:20.449Z,22.4
2022-12-23T00:37:22.958Z,22.6
2022-12-23T00:38:25.463Z,22.4
2022-12-23T00:39:27.677Z,22.6
2022-12-23T00:40:30.274Z,22.7
2022-12-23T00:41:32.494Z,22.5
2022-12-23T00:42:34.208Z,22.5
2022-12-23T00:43:36.697Z,22.7
2022-12-23T00:44:39.475Z,22.6
2022-12-23T00:45:41.988Z,22.7
2022-12-23T00:46:44.827Z,22.5
2022-12-23T00:47:47.125Z,22.5
2022-12-23T00:48:49.361Z,22.6
2022-12-23T00:49:51.590Z,22.6
2022-12-23T00:50:54.104Z,22.6
2022-12-23T00:51:56.647Z,22.3
2022-12-23T00:52:58.927Z,22.6
2022-12-23T00:54:01.453Z,22.7
2022-12-23T00:55:03.675Z,22.7
2022-12-23T00:56:06.185Z,22.6
2022-12-23T00:57:08.709Z,22.5
2022-12-23T00:58:11.027Z,22.7
2022-12-23T00:59:13.552Z,22.5
2022-12-23T01:00:16.269Z,22.8
2022-12-23T01:01:18.860Z,22.6
2022-12-23T01:02:22.157Z,22.7
2022-12-23T01:03:25.283Z,22.5
2022-12-23T01:04:28.177Z,22.8
2022-12-23T01:05:30.177Z,22.6
2022-12-23T01:06:32.468Z,22.7
2022-12-23T01:07:35.003Z,22.6
2022-12-23T01:08:37.505Z,22.7
2022-12-23T01:09:39.723Z,22.7
2022-12-23T01:10:41.973Z,22.7
2022-12-23T01:11:44.473Z,22.7
2022-12-23T01:12:46.698Z,22.8
2022-12-23T01:13:48.913Z,22.7
2022-12-23T01:14:51.110Z,22.6
2022-12-23T01:15:54.403Z,22.8
2022-12-23T01:16:56.976Z,22.6
2022-12-23T01:17:59.962Z,22.7
2022-12-23T01:19:02.207Z,22.7
2022-12-23T01:20:04.768Z,22.6
2022-12-23T01:21:07.286Z,22.7
2022-12-23T01:22:09.822Z,22.7
2022-12-23T01:23:12.380Z,22.8
2022-12-23T01:24:14.426Z,22.6
2022-12-23T01:25:16.682Z,22.6
2022-12-23T01:26:18.663Z,22.8
2022-12-23T01:27:21.180Z,22.7
2022-12-23T01:28:23.415Z,22.8
2022-12-23T01:29:25.921Z,22.8
2022-12-23T01:30:28.170Z,22.8
2022-12-23T01:31:30.909Z,22.9
2022-12-23T01:32:33.494Z,22.8
2022-12-23T01:33:36.549Z,22.8
2022-12-23T01:34:39.075Z,22.8
2022-12-23T01:35:41.600Z,23
2022-12-23T01:36:43.816Z,22.8
2022-12-23T01:37:46.083Z,23
2022-12-23T01:38:48.581Z,22.8
2022-12-23T01:39:50.823Z,22.6
2022-12-23T01:40:52.797Z,22.9
2022-12-23T01:41:55.325Z,22.9
2022-12-23T01:42:57.833Z,22.8
2022-12-23T01:44:00.342Z,22.8
2022-12-23T01:45:02.356Z,23
2022-12-23T01:46:04.676Z,22.8
2022-12-23T01:47:07.661Z,22.9
2022-12-23T01:48:10.179Z,22.7
2022-12-23T01:49:12.160Z,22.8
2022-12-23T01:50:14.412Z,22.9
2022-12-23T01:51:16.935Z,22.8
2022-12-23T01:52:19.199Z,22.9
2022-12-23T01:53:21.172Z,22.8
2022-12-23T01:54:23.442Z,23
2022-12-23T01:55:25.959Z,22.9
2022-12-23T01:56:28.545Z,22.9
2022-12-23T01:57:30.802Z,23
2022-12-23T01:58:33.350Z,22.9
2022-12-23T01:59:35.603Z,22.9
2022-12-23T02:00:38.099Z,22.8
2022-12-23T02:01:40.731Z,23.1
2022-12-23T02:02:44.348Z,22.8
2022-12-23T02:03:47.541Z,23
2022-12-23T02:04:50.063Z,22.9
2022-12-23T02:05:52.552Z,22.7
2022-12-23T02:06:54.755Z,22.7
2022-12-23T02:07:57.288Z,22.8
2022-12-23T02:08:59.245Z,22.8
2022-12-23T02:10:01.508Z,22.9
2022-12-23T02:11:03.775Z,22.7
2022-12-23T02:12:06.036Z,22.8
2022-12-23T02:13:08.912Z,22.9
2022-12-23T02:14:11.420Z,22.9
2022-12-23T02:15:13.925Z,23
2022-12-23T02:16:16.499Z,22.9
2022-12-23T02:17:19.549Z,22.9
2022-12-23T02:18:22.179Z,22.9
2022-12-23T02:19:24.454Z,23
2022-12-23T02:20:26.706Z,23
2022-12-23T02:21:28.951Z,22.9
2022-12-23T02:22:32.124Z,22.9
2022-12-23T02:23:34.647Z,23
2022-12-23T02:24:36.865Z,23
2022-12-23T02:25:39.387Z,22.9
2022-12-23T02:26:41.615Z,23
2022-12-23T02:27:44.123Z,23
2022-12-23T02:28:46.652Z,22.9
2022-12-23T02:29:49.161Z,23
2022-12-23T02:30:51.736Z,23
2022-12-23T02:31:54.311Z,22.9
2022-12-23T02:32:56.862Z,22.9
2022-12-23T02:33:59.522Z,22.9
2022-12-23T02:35:02.044Z,22.9
2022-12-23T02:36:04.577Z,22.9
2022-12-23T02:37:07.104Z,22.8
2022-12-23T02:38:09.631Z,22.9
2022-12-23T02:39:11.646Z,22.9
2022-12-23T02:40:14.133Z,22.9
2022-12-23T02:41:16.669Z,23
2022-12-23T02:42:18.885Z,22.9
2022-12-23T02:43:21.422Z,22.9
2022-12-23T02:44:23.926Z,23.2
2022-12-23T02:45:26.160Z,23.1
2022-12-23T02:46:28.505Z,23.1
2022-12-23T02:47:31.522Z,23
2022-12-23T02:48:33.757Z,23
2022-12-23T02:49:36.440Z,22.9
2022-12-23T02:50:38.986Z,22.9
2022-12-23T02:51:41.524Z,22.9
2022-12-23T02:52:43.780Z,23.1
2022-12-23T02:53:45.793Z,22.8
2022-12-23T02:54:48.070Z,22.9
2022-12-23T02:55:50.626Z,22.9
2022-12-23T02:56:52.851Z,22.9
2022-12-23T02:57:55.111Z,23
2022-12-23T02:58:57.612Z,22.8
2022-12-23T03:00:00.172Z,23
2022-12-23T03:01:02.856Z,23.1
2022-12-23T03:02:05.636Z,22.9
2022-12-23T03:03:08.787Z,23
2022-12-23T03:04:11.828Z,23
2022-12-23T03:05:14.774Z,22.9
2022-12-23T03:06:17.272Z,22.9
2022-12-23T03:07:19.797Z,23
2022-12-23T03:08:22.047Z,23
2022-12-23T03:09:24.352Z,23
2022-12-23T03:10:26.603Z,22.9
2022-12-23T03:11:29.157Z,23
2022-12-23T03:12:31.803Z,23.1
2022-12-23T03:13:34.062Z,23.1
2022-12-23T03:14:36.570Z,23.1
2022-12-23T03:15:39.198Z,22.9
2022-12-23T03:16:42.037Z,23
2022-12-23T03:17:44.563Z,22.9
2022-12-23T03:18:47.074Z,23.1
2022-12-23T03:19:49.583Z,22.9
2022-12-23T03:20:52.528Z,23
2022-12-23T03:21:55.070Z,22.9
2022-12-23T03:22:57.589Z,23
2022-12-23T03:24:00.101Z,22.9
2022-12-23T03:25:02.041Z,23.1
2022-12-23T03:26:04.573Z,23
2022-12-23T03:27:07.074Z,22.9
2022-12-23T03:28:09.304Z,23
2022-12-23T03:29:11.852Z,22.9
2022-12-23T03:30:14.403Z,23
2022-12-23T03:31:16.732Z,23
2022-12-23T03:32:19.472Z,23.2
2022-12-23T03:33:21.995Z,23
2022-12-23T03:34:24.242Z,23
2022-12-23T03:35:26.480Z,23.1
2022-12-23T03:36:29.132Z,23
2022-12-23T03:37:31.382Z,23
2022-12-23T03:38:33.917Z,22.9
2022-12-23T03:39:36.484Z,23
2022-12-23T03:40:38.994Z,23.1
2022-12-23T03:41:41.226Z,23
2022-12-23T03:42:43.712Z,23
2022-12-23T03:43:50.571Z,23
2022-12-23T03:45:11.000Z,23
2022-12-23T03:45:56.213Z,22.8
2022-12-23T03:46:59.095Z,23.1
2022-12-23T03:48:01.349Z,23
2022-12-23T03:49:03.856Z,22.9
2022-12-23T03:50:06.455Z,23
2022-12-23T03:51:08.737Z,22.9
2022-12-23T03:52:14.613Z,22.8
2022-12-23T03:53:16.366Z,23
2022-12-23T03:54:18.884Z,23.1
2022-12-23T03:55:21.389Z,23
2022-12-23T03:56:23.609Z,23
2022-12-23T03:57:26.117Z,23.2
2022-12-23T03:58:28.604Z,23
2022-12-23T03:59:30.812Z,22.9
2022-12-23T04:00:33.480Z,23
2022-12-23T04:01:35.814Z,23.2
2022-12-23T04:02:38.769Z,23
2022-12-23T04:03:42.303Z,23.2
2022-12-23T04:04:45.156Z,23.1
2022-12-23T04:05:47.431Z,23.2
2022-12-23T04:06:49.811Z,23
2022-12-23T04:07:52.457Z,23.1
2022-12-23T04:08:54.958Z,23
2022-12-23T04:09:57.498Z,22.9
2022-12-23T04:11:00.002Z,23
2022-12-23T04:12:02.514Z,23.1
2022-12-23T04:13:04.434Z,23.1
2022-12-23T04:14:06.948Z,23
2022-12-23T04:15:12.986Z,23.1
2022-12-23T04:16:14.586Z,23
2022-12-23T04:17:17.679Z,22.9
2022-12-23T04:18:19.930Z,23
2022-12-23T04:19:22.459Z,23
2022-12-23T04:20:24.706Z,23
2022-12-23T04:21:27.244Z,23
2022-12-23T04:22:29.770Z,22.9
2022-12-23T04:23:32.428Z,22.8
2022-12-23T04:24:34.979Z,23
2022-12-23T04:25:37.218Z,22.8
2022-12-23T04:26:39.441Z,23
2022-12-23T04:27:41.956Z,22.9
2022-12-23T04:28:44.214Z,22.8
2022-12-23T04:29:46.747Z,23
2022-12-23T04:30:49.026Z,22.9
2022-12-23T04:31:51.297Z,22.9
2022-12-23T04:32:53.960Z,22.9
2022-12-23T04:33:56.225Z,22.9
2022-12-23T04:34:58.499Z,22.8
2022-12-23T04:36:01.034Z,22.9
2022-12-23T04:37:03.560Z,22.7
2022-12-23T04:38:06.078Z,22.9
2022-12-23T04:39:08.835Z,22.9
2022-12-23T04:40:11.384Z,22.9
2022-12-23T04:41:13.906Z,22.9
2022-12-23T04:42:16.144Z,22.8
2022-12-23T04:43:18.652Z,22.8
2022-12-23T04:44:21.197Z,22.8
2022-12-23T04:45:23.763Z,22.8
2022-12-23T04:46:26.367Z,22.8
2022-12-23T04:47:28.870Z,22.7
2022-12-23T04:48:31.373Z,22.7
2022-12-23T04:49:33.601Z,22.9
2022-12-23T04:50:36.101Z,22.8
2022-12-23T04:51:38.375Z,22.9
2022-12-23T04:52:40.586Z,22.8
2022-12-23T04:53:43.186Z,22.9
2022-12-23T04:54:46.564Z,22.7
2022-12-23T04:55:49.142Z,22.9
2022-12-23T04:56:51.798Z,22.8
2022-12-23T04:57:53.737Z,22.9
2022-12-23T04:58:56.242Z,22.8
2022-12-23T04:59:58.755Z,22.7
2022-12-23T05:01:01.298Z,22.9
2022-12-23T05:02:04.434Z,22.8
2022-12-23T05:03:07.811Z,22.6
2022-12-23T05:04:11.329Z,22.9
2022-12-23T05:05:14.260Z,22.8
2022-12-23T05:06:16.502Z,22.8
2022-12-23T05:07:18.750Z,22.7
2022-12-23T05:08:20.991Z,22.7
2022-12-23T05:09:23.505Z,22.8
2022-12-23T05:10:26.202Z,22.7
2022-12-23T05:11:28.764Z,22.8
2022-12-23T05:12:31.316Z,22.6
2022-12-23T05:13:33.282Z,22.7
2022-12-23T05:14:35.797Z,22.8
2022-12-23T05:16:55.366Z,22.5
2022-12-23T05:18:01.530Z,22.8
2022-12-23T05:19:04.083Z,22.7
2022-12-23T05:20:06.575Z,22.6
2022-12-23T05:21:08.838Z,22.7
2022-12-23T05:22:11.107Z,22.7
2022-12-23T05:23:13.622Z,22.7
2022-12-23T05:24:16.170Z,22.7
2022-12-23T05:25:18.378Z,22.7
2022-12-23T05:26:20.801Z,22.7
2022-12-23T05:27:23.069Z,22.8
2022-12-23T05:28:25.591Z,22.6
2022-12-23T05:29:28.102Z,22.8
2022-12-23T05:30:30.342Z,22.7
2022-12-23T05:31:32.911Z,22.5
2022-12-23T05:32:35.526Z,22.5
2022-12-23T05:33:38.080Z,22.6
2022-12-23T05:34:41.037Z,22.4
2022-12-23T05:35:43.298Z,22.6
2022-12-23T05:36:45.789Z,22.7
2022-12-23T05:37:48.068Z,22.6
2022-12-23T05:38:50.322Z,22.6
2022-12-23T05:39:52.854Z,22.7
2022-12-23T05:40:55.388Z,22.5
2022-12-23T05:41:58.059Z,22.6
2022-12-23T05:43:00.698Z,22.6
2022-12-23T05:44:03.207Z,22.6
2022-12-23T05:45:05.719Z,22.7
2022-12-23T05:46:08.386Z,22.5
2022-12-23T05:47:10.767Z,22.7
2022-12-23T05:48:13.249Z,22.6
2022-12-23T05:49:15.479Z,22.7
2022-12-23T05:50:18.042Z,22.6
2022-12-23T05:51:20.660Z,22.6
2022-12-23T05:52:23.286Z,22.6
2022-12-23T05:53:25.788Z,22.6
2022-12-23T05:54:28.072Z,22.8
2022-12-23T05:55:30.331Z,22.7
2022-12-23T05:56:32.552Z,22.7
2022-12-23T05:57:35.273Z,22.7
2022-12-23T05:58:38.694Z,22.7
2022-12-23T05:59:42.132Z,22.5
2022-12-23T06:00:43.952Z,22.6
2022-12-23T06:01:46.516Z,22.8
2022-12-23T06:02:53.728Z,22.5
2022-12-23T06:03:54.818Z,22.7
2022-12-23T06:04:58.334Z,22.8
2022-12-23T06:06:00.596Z,22.6
2022-12-23T06:07:02.567Z,22.7
2022-12-23T06:08:05.131Z,22.6
2022-12-23T06:09:07.697Z,22.8
2022-12-23T06:10:10.243Z,22.7
2022-12-23T06:11:12.866Z,22.7
2022-12-23T06:12:15.392Z,22.6
2022-12-23T06:13:18.158Z,22.6
2022-12-23T06:14:23.890Z,22.6
2022-12-23T06:15:25.356Z,22.6
2022-12-23T06:16:27.610Z,22.6
2022-12-23T06:17:30.480Z,22.6
2022-12-23T06:18:33.036Z,22.6
2022-12-23T06:19:35.573Z,22.6
2022-12-23T06:20:38.076Z,22.5
2022-12-23T06:21:40.340Z,22.5
2022-12-23T06:22:42.941Z,22.5
2022-12-23T06:23:45.453Z,22.4
2022-12-23T06:24:47.979Z,22.5
2022-12-23T06:25:50.516Z,22.6
2022-12-23T06:26:56.925Z,22.5
2022-12-23T06:27:57.723Z,22.5
2022-12-23T06:29:00.739Z,22.4
2022-12-23T06:30:02.986Z,22.4
2022-12-23T06:31:05.515Z,22.4
2022-12-23T06:32:08.064Z,22.7
2022-12-23T06:33:10.949Z,22.4
2022-12-23T06:34:13.488Z,22.6
2022-12-23T06:35:16.012Z,22.6
2022-12-23T06:36:18.585Z,22.6
2022-12-23T06:37:20.851Z,22.6
2022-12-23T06:38:23.405Z,22.6
2022-12-23T06:39:25.646Z,22.6
2022-12-23T06:40:28.208Z,22.4
2022-12-23T06:41:30.967Z,22.7
2022-12-23T06:42:33.199Z,22.5
2022-12-23T06:43:35.711Z,22.7
2022-12-23T06:44:38.175Z,22.7
2022-12-23T06:45:40.754Z,22.5
2022-12-23T06:46:43.472Z,22.6
2022-12-23T06:47:46.053Z,22.5
2022-12-23T06:48:48.029Z,22.4
2022-12-23T06:49:50.667Z,22.5
2022-12-23T06:50:52.933Z,22.5
2022-12-23T06:51:55.162Z,22.5
2022-12-23T06:52:57.666Z,22.5
2022-12-23T06:53:59.609Z,22.5
2022-12-23T06:55:02.129Z,22.5
2022-12-23T06:56:04.475Z,22.4
2022-12-23T06:57:06.970Z,22.5
2022-12-23T06:58:09.486Z,22.4
2022-12-23T06:59:11.997Z,22.4
2022-12-23T07:00:14.699Z,22.6
2022-12-23T07:01:17.362Z,22.6
2022-12-23T07:02:20.171Z,22.5
2022-12-23T07:03:23.553Z,22.5
2022-12-23T07:04:26.192Z,22.5
2022-12-23T07:05:35.011Z,22.4
2022-12-23T07:06:33.802Z,22.5
2022-12-23T07:07:36.329Z,22.5
2022-12-23T07:08:38.869Z,22.4
2022-12-23T07:09:40.859Z,22.4
2022-12-23T07:10:42.857Z,22.5
2022-12-23T07:11:45.363Z,22.4
2022-12-23T07:12:50.811Z,22.5
2022-12-23T07:13:52.604Z,22.5
2022-12-23T07:14:55.126Z,22.4
2022-12-23T07:15:57.837Z,22.5
2022-12-23T07:17:00.234Z,22.4
2022-12-23T07:18:03.235Z,22.4
2022-12-23T07:19:05.762Z,22.4
2022-12-23T07:20:08.312Z,22.4
2022-12-23T07:21:19.957Z,22.4
2022-12-23T07:22:15.628Z,22.6
2022-12-23T07:23:17.886Z,22.4
2022-12-23T07:24:20.433Z,22.4
2022-12-23T07:25:22.950Z,22.3
2022-12-23T07:26:25.470Z,22.3
2022-12-23T07:27:28.026Z,22.5
2022-12-23T07:28:30.635Z,22.3
2022-12-23T07:29:32.952Z,22.4
2022-12-23T07:30:35.218Z,22.4
2022-12-23T07:31:40.878Z,22.4
2022-12-23T07:32:42.848Z,22.3
2022-12-23T07:33:45.106Z,22.3
2022-12-23T07:34:47.603Z,22.5
2022-12-23T07:35:50.115Z,22.4
2022-12-23T07:36:52.348Z,22.4
2022-12-23T07:37:54.864Z,22.4
2022-12-23T07:38:57.099Z,22.4
2022-12-23T07:40:02.178Z,22.2
2022-12-23T07:41:04.319Z,22.4
2022-12-23T07:42:34.232Z,22.5
2022-12-23T07:43:11.880Z,22.4
2022-12-23T07:44:14.399Z,22.5
2022-12-23T07:45:16.906Z,22.5
2022-12-23T07:46:19.194Z,22.4
2022-12-23T07:47:22.332Z,22.3
2022-12-23T07:48:23.995Z,22.4
2022-12-23T07:49:26.218Z,22.3
2022-12-23T07:50:28.460Z,22.4
2022-12-23T07:51:31.016Z,22.3
2022-12-23T07:52:33.284Z,22.3
2022-12-23T07:53:35.309Z,22.3
2022-12-23T07:54:37.838Z,22.2
2022-12-23T07:55:40.105Z,22.3
2022-12-23T07:56:42.332Z,22.3
2022-12-23T07:57:44.262Z,22.3
2022-12-23T07:58:46.768Z,22.5
2022-12-23T07:59:49.521Z,22.5
2022-12-23T08:00:51.521Z,22.2
2022-12-23T08:01:53.615Z,22.3
2022-12-23T08:02:57.428Z,22.4
2022-12-23T08:04:01.034Z,22.4
2022-12-23T08:05:03.345Z,22.3
2022-12-23T08:06:06.258Z,22.4
2022-12-23T08:07:08.519Z,22.3
2022-12-23T08:08:10.726Z,22.4
2022-12-23T08:09:12.989Z,22.3
2022-12-23T08:10:14.944Z,22.3
2022-12-23T08:11:17.462Z,22.5
2022-12-23T08:12:19.984Z,22.6
2022-12-23T08:13:22.483Z,22.4
2022-12-23T08:14:24.733Z,22.5
2022-12-23T08:15:27.224Z,22.5
2022-12-23T08:16:29.559Z,22.3
2022-12-23T08:17:36.792Z,22.3
2022-12-23T08:18:39.446Z,22.5
2022-12-23T08:19:41.990Z,22.4
2022-12-23T08:20:44.534Z,22.3
2022-12-23T08:21:46.471Z,22.4
2022-12-23T08:22:48.993Z,22.4
2022-12-23T08:23:51.554Z,22.4
2022-12-23T08:24:53.791Z,22.4
2022-12-23T08:25:56.300Z,22.5
2022-12-23T08:26:58.824Z,22.4
2022-12-23T08:28:01.361Z,22.4
2022-12-23T08:29:03.317Z,22.5
2022-12-23T08:30:05.837Z,22.5
2022-12-23T08:31:08.401Z,22.5
2022-12-23T08:32:11.450Z,22.4
2022-12-23T08:33:13.971Z,22.5
2022-12-23T08:34:16.691Z,22.4
2022-12-23T08:35:18.667Z,22.5
2022-12-23T08:36:23.248Z,22.4
2022-12-23T08:37:25.919Z,22.4
2022-12-23T08:38:28.451Z,22.3
2022-12-23T08:39:30.696Z,22.3
2022-12-23T08:40:32.696Z,22.4
2022-12-23T08:41:34.953Z,22.4
2022-12-23T08:42:37.742Z,22.3
2022-12-23T08:43:40.247Z,22.4
2022-12-23T08:44:42.497Z,22.4
2022-12-23T08:45:45.057Z,22.3
2022-12-23T08:46:47.993Z,22.4
2022-12-23T08:47:50.775Z,22.3
2022-12-23T08:48:53.296Z,22.4
2022-12-23T08:49:56.130Z,22.4
2022-12-23T08:50:58.620Z,22.4
2022-12-23T08:52:01.133Z,22.3
2022-12-23T08:53:03.653Z,22.4
2022-12-23T08:54:06.189Z,22.5
2022-12-23T08:55:08.703Z,22.3
2022-12-23T08:56:11.233Z,22.3
2022-12-23T08:57:13.764Z,22.4
2022-12-23T08:58:16.346Z,22.4
2022-12-23T08:59:19.770Z,22.4
2022-12-23T09:00:22.460Z,22.4
2022-12-23T09:01:25.400Z,22.4
2022-12-23T09:02:29.111Z,22.4
2022-12-23T09:03:32.579Z,22.3
2022-12-23T09:04:35.576Z,22.4
2022-12-23T09:05:38.227Z,22.3
2022-12-23T09:06:40.760Z,22.4
2022-12-23T09:07:43.288Z,22.4
2022-12-23T09:08:45.527Z,22.3
2022-12-23T09:09:48.044Z,22.5
2022-12-23T09:10:50.032Z,22.3
2022-12-23T09:11:52.269Z,22.4
2022-12-23T09:12:56.987Z,22.3
2022-12-23T09:13:59.548Z,22.3
2022-12-23T09:15:02.099Z,22.4
2022-12-23T09:16:04.472Z,22.4
2022-12-23T09:17:07.078Z,22.4
2022-12-23T09:18:09.649Z,22.4
2022-12-23T09:19:12.200Z,22.4
2022-12-23T09:20:14.789Z,22.5
2022-12-23T09:21:17.528Z,22.5
2022-12-23T09:22:20.185Z,22.4
2022-12-23T09:23:22.758Z,22.3
2022-12-23T09:24:24.737Z,22.3
2022-12-23T09:25:27.276Z,22.3
2022-12-23T09:26:29.840Z,22.4
2022-12-23T09:27:32.134Z,22.2
2022-12-23T09:28:34.681Z,22.4
2022-12-23T09:29:37.217Z,22.2
2022-12-23T09:30:39.757Z,22.3
2022-12-23T09:31:41.760Z,22.3
2022-12-23T09:32:44.776Z,22.4
2022-12-23T09:33:47.031Z,22.2
2022-12-23T09:34:49.271Z,22.4
2022-12-23T09:35:51.515Z,22.3
2022-12-23T09:36:55.528Z,22.3
2022-12-23T09:37:58.223Z,22.3
2022-12-23T09:39:00.770Z,22.4
2022-12-23T09:40:03.041Z,22.4
2022-12-23T09:41:05.273Z,22.4
2022-12-23T09:42:07.512Z,22.5
2022-12-23T09:43:09.798Z,22.2
2022-12-23T09:44:12.055Z,22.2
2022-12-23T09:45:14.127Z,22.5
2022-12-23T09:46:16.768Z,22.2
2022-12-23T09:47:19.705Z,22.5
2022-12-23T09:48:22.266Z,22.4
2022-12-23T09:49:24.809Z,22.4
2022-12-23T09:50:26.827Z,22.3
2022-12-23T09:51:28.837Z,22.5
2022-12-23T09:52:31.503Z,22.3
2022-12-23T09:53:34.030Z,22.3
2022-12-23T09:54:36.570Z,22.3
2022-12-23T09:55:39.069Z,22.4
2022-12-23T09:56:42.394Z,22.4
2022-12-23T09:57:44.602Z,22.4
2022-12-23T09:58:46.830Z,22.6
2022-12-23T09:59:49.355Z,22.4
2022-12-23T10:00:51.873Z,22.4
2022-12-23T10:01:54.198Z,22.4
2022-12-23T10:02:57.733Z,22.4
2022-12-23T10:04:02.096Z,22.4
2022-12-23T10:05:05.114Z,22.4
2022-12-23T10:06:07.386Z,22.4
2022-12-23T10:07:09.925Z,22.6
2022-12-23T10:08:12.623Z,22.4
2022-12-23T10:09:15.277Z,22.3
2022-12-23T10:10:17.505Z,22.4
2022-12-23T10:11:20.220Z,22.5
2022-12-23T10:12:27.712Z,22.3
2022-12-23T10:13:27.740Z,22.3
2022-12-23T10:14:30.361Z,22.5
2022-12-23T10:15:32.902Z,22.6
2022-12-23T10:16:34.728Z,22.6
2022-12-23T10:17:37.688Z,22.4
2022-12-23T10:18:40.196Z,22.4
2022-12-23T10:19:42.451Z,22.3
2022-12-23T10:20:44.968Z,22.5
2022-12-23T10:21:48.140Z,22.6
2022-12-23T10:22:50.497Z,22.4
2022-12-23T10:23:52.888Z,22.3
2022-12-23T10:24:55.413Z,22.5
2022-12-23T10:25:57.954Z,22.4
2022-12-23T10:27:00.187Z,22.4
2022-12-23T10:28:02.702Z,22.4
2022-12-23T10:29:05.218Z,22.7
2022-12-23T10:30:26.937Z,22.4
2022-12-23T10:31:39.628Z,22.4
2022-12-23T10:32:17.326Z,22.5
2022-12-23T10:33:20.063Z,22.5
2022-12-23T10:34:22.590Z,22.5
2022-12-23T10:35:25.106Z,22.4
2022-12-23T10:36:27.353Z,22.6
2022-12-23T10:37:29.982Z,22.5
2022-12-23T10:38:32.199Z,22.5
2022-12-23T10:39:34.946Z,22.5
2022-12-23T10:40:37.502Z,22.5
2022-12-23T10:41:39.775Z,22.4
2022-12-23T10:42:42.326Z,22.4
2022-12-23T10:43:44.904Z,22.4
2022-12-23T10:44:47.175Z,22.5
2022-12-23T10:45:50.049Z,22.5
2022-12-23T10:46:52.330Z,22.5
2022-12-23T10:47:55.244Z,22.3
2022-12-23T10:48:57.502Z,22.6
2022-12-23T10:50:00.116Z,22.5
2022-12-23T10:51:02.491Z,22.6
2022-12-23T10:52:04.794Z,22.5
2022-12-23T10:53:07.073Z,22.4
2022-12-23T10:54:09.620Z,22.3
2022-12-23T10:55:12.339Z,22.3
2022-12-23T10:56:14.593Z,22.4
2022-12-23T10:57:16.928Z,22.6
2022-12-23T10:58:19.461Z,22.3
2022-12-23T10:59:21.964Z,22.5
2022-12-23T11:00:24.215Z,22.6
2022-12-23T11:01:27.513Z,22.5
2022-12-23T11:02:31.162Z,22.5
2022-12-23T11:03:34.584Z,22.5
2022-12-23T11:04:38.659Z,22.4
2022-12-23T11:05:40.618Z,22.5
2022-12-23T11:06:43.779Z,22.4
2022-12-23T11:07:46.565Z,22.5
2022-12-23T11:08:49.366Z,22.4
2022-12-23T11:09:53.093Z,22.4
2022-12-23T11:10:55.753Z,22.5
2022-12-23T11:11:57.987Z,22.4
2022-12-23T11:13:00.287Z,22.4
2022-12-23T11:14:02.803Z,22.4
2022-12-23T11:15:05.340Z,22.4
2022-12-23T11:16:07.923Z,22.4
2022-12-23T11:17:10.442Z,22.6
2022-12-23T11:18:12.706Z,22.5
2022-12-23T11:19:15.384Z,22.4
2022-12-23T11:20:17.937Z,22.4
2022-12-23T11:21:20.218Z,22.5
2022-12-23T11:22:22.800Z,22.3
2022-12-23T11:23:25.059Z,22.5
2022-12-23T11:24:27.646Z,22.6
2022-12-23T11:25:30.184Z,22.6
2022-12-23T11:26:32.940Z,22.4
2022-12-23T11:27:35.137Z,22.4
2022-12-23T11:28:38.719Z,22.4
2022-12-23T11:29:41.224Z,22.6
2022-12-23T11:30:43.829Z,22.4
2022-12-23T11:31:49.341Z,22.4
2022-12-23T11:32:52.027Z,22.6
2022-12-23T11:33:54.812Z,22.6
2022-12-23T11:34:57.112Z,22.5
2022-12-23T11:36:00.016Z,22.6
2022-12-23T11:37:07.113Z,22.5
2022-12-23T11:38:06.975Z,22.6
2022-12-23T11:39:09.529Z,22.3
2022-12-23T11:40:11.847Z,22.5
2022-12-23T11:41:14.260Z,22.3
2022-12-23T11:42:16.973Z,22.5
2022-12-23T11:43:19.210Z,22.4
2022-12-23T11:44:21.733Z,22.5
2022-12-23T11:45:24.046Z,22.4
2022-12-23T11:46:26.514Z,22.5
2022-12-23T11:47:29.637Z,22.5
2022-12-23T11:48:32.236Z,22.5
2022-12-23T11:49:34.769Z,22.3
2022-12-23T11:50:37.839Z,22.4
2022-12-23T11:51:40.351Z,22.4
2022-12-23T11:52:43.430Z,22.6
2022-12-23T11:53:45.382Z,22.3
2022-12-23T11:54:52.730Z,22.3
2022-12-23T11:55:53.583Z,22.5
2022-12-23T11:56:55.984Z,22.5
2022-12-23T11:57:59.053Z,22.4
2022-12-23T11:59:01.329Z,22.4
2022-12-23T12:00:03.840Z,22.6
2022-12-23T12:01:06.091Z,22.4
2022-12-23T12:02:08.384Z,22.4
2022-12-23T12:03:11.328Z,22.5
2022-12-23T12:04:14.079Z,22.4
2022-12-23T12:05:16.631Z,22.4
2022-12-23T12:06:19.153Z,22.4
2022-12-23T12:07:21.726Z,22.4
2022-12-23T12:08:24.231Z,22.5
2022-12-23T12:09:26.213Z,22.6
2022-12-23T12:10:28.825Z,22.5
2022-12-23T12:11:31.084Z,22.4
2022-12-23T12:12:33.323Z,22.4
2022-12-23T12:13:36.045Z,22.6
2022-12-23T12:14:39.060Z,22.6
2022-12-23T12:15:42.453Z,22.4
2022-12-23T12:16:45.086Z,22.4
2022-12-23T12:17:49.319Z,22.4
2022-12-23T12:18:55.379Z,22.6
2022-12-23T12:19:56.810Z,22.6
2022-12-23T12:20:59.334Z,22.4
2022-12-23T12:22:01.844Z,22.5
2022-12-23T12:23:04.139Z,22.6
2022-12-23T12:24:18.157Z,22.6
2022-12-23T12:25:11.363Z,22.6
2022-12-23T12:26:13.938Z,22.7
2022-12-23T12:27:15.924Z,22.6
2022-12-23T12:28:18.159Z,22.4
2022-12-23T12:29:20.530Z,22.5
2022-12-23T12:30:23.324Z,22.4
2022-12-23T12:31:26.083Z,22.5
2022-12-23T12:32:28.901Z,22.6
2022-12-23T12:33:30.886Z,22.5
2022-12-23T12:34:33.432Z,22.6
2022-12-23T12:35:35.688Z,22.4
2022-12-23T12:36:38.279Z,22.5
2022-12-23T12:37:40.757Z,22.4
2022-12-23T12:38:43.964Z,22.5
2022-12-23T12:39:45.981Z,22.5
2022-12-23T12:40:48.511Z,22.5
2022-12-23T12:41:50.463Z,22.4
2022-12-23T12:42:53.924Z,22.3
2022-12-23T12:43:56.453Z,22.5
2022-12-23T12:44:59.094Z,22.4
2022-12-23T12:46:01.805Z,22.4
2022-12-23T12:47:21.801Z,22.3
2022-12-23T12:48:16.228Z,22.5
2022-12-23T12:49:14.734Z,22.4
2022-12-23T12:50:17.248Z,22.4
2022-12-23T12:51:19.757Z,22.4
2022-12-23T12:52:22.314Z,22.5
2022-12-23T12:53:24.987Z,22.4
2022-12-23T12:54:27.726Z,22.5
2022-12-23T12:55:29.972Z,22.5
2022-12-23T12:56:32.499Z,22.4
2022-12-23T12:57:35.065Z,22.4
2022-12-23T12:58:37.619Z,22.4
2022-12-23T12:59:40.171Z,22.4
2022-12-23T13:00:43.562Z,22.6
2022-12-23T13:01:45.880Z,22.4
2022-12-23T13:02:48.616Z,22.5
2022-12-23T13:03:51.240Z,22.4
2022-12-23T13:04:53.800Z,22.6
2022-12-23T13:05:56.058Z,22.3
2022-12-23T13:06:58.298Z,22.4
2022-12-23T13:08:00.820Z,22.4
2022-12-23T13:09:03.124Z,22.5
2022-12-23T13:10:05.648Z,22.4
2022-12-23T13:11:08.076Z,22.4
2022-12-23T13:12:10.636Z,22.5
2022-12-23T13:13:12.886Z,22.4
2022-12-23T13:14:15.422Z,22.5
2022-12-23T13:15:17.420Z,22.4
2022-12-23T13:16:20.135Z,22.4
2022-12-23T13:17:22.965Z,22.4
2022-12-23T13:18:25.620Z,22.4
2022-12-23T13:19:28.118Z,22.4
2022-12-23T13:20:30.093Z,22.5
2022-12-23T13:21:32.351Z,22.6
2022-12-23T13:22:34.909Z,22.5
2022-12-23T13:23:45.132Z,22.4
2022-12-23T13:24:42.404Z,22.5
2022-12-23T13:25:44.955Z,22.5
2022-12-23T13:26:48.609Z,22.6
2022-12-23T13:27:50.614Z,22.4
2022-12-23T13:28:53.059Z,22.5
2022-12-23T13:29:58.180Z,22.6
2022-12-23T13:31:00.395Z,22.3
2022-12-23T13:32:03.681Z,22.5
2022-12-23T13:33:06.049Z,22.5
2022-12-23T13:34:08.292Z,22.3
2022-12-23T13:35:10.532Z,22.4
2022-12-23T13:36:12.283Z,22.4
2022-12-23T13:37:15.033Z,22.4
2022-12-23T13:38:17.646Z,22.5
2022-12-23T13:39:20.181Z,22.4
2022-12-23T13:40:22.558Z,22.6
2022-12-23T13:41:25.060Z,22.5
2022-12-23T13:42:27.568Z,22.6
2022-12-23T13:43:29.834Z,22.4
2022-12-23T13:44:32.083Z,22.2
2022-12-23T13:45:34.343Z,22.6
2022-12-23T13:46:37.907Z,22.4
2022-12-23T13:47:41.039Z,22.4
2022-12-23T13:48:43.590Z,22.4
2022-12-23T13:49:46.217Z,22.4
2022-12-23T13:50:48.753Z,22.4
2022-12-23T13:51:51.300Z,22.7
2022-12-23T13:52:53.542Z,22.4
2022-12-23T13:53:59.301Z,22.5
2022-12-23T13:55:00.474Z,22.7
2022-12-23T13:56:02.790Z,22.4
2022-12-23T13:57:05.054Z,22.6
2022-12-23T13:58:07.571Z,22.4
2022-12-23T13:59:10.101Z,22.4